sensor_id;sensor_type;location;lat;lon;timestamp;P1;durP1;ratioP1;P2;durP2;ratioP2
6173;SDS011;3120;48.796;9.796;2023-07-29T11:39:56;0.60;;;0.38;;
6173;SDS011;3120;48.796;9.796;2023-07-29T11:42:23;1.92;;;0.30;;
6173;SDS011;3120;48.796;9.796;2023-07-29T11:44:49;0.57;;;0.30;;
6173;SDS011;3120;48.796;9.796;2023-07-29T11:47:15;0.90;;;0.30;;
6173;SDS011;3120;48.796;9.796;2023-07-29T11:49:40;0.55;;;0.30;;
6173;SDS011;3120;48.796;9.796;2023-07-29T11:52:07;0.90;;;0.45;;
6173;SDS011;3120;48.796;9.796;2023-07-29T11:54:37;2.33;;;0.30;;
6173;SDS011;3120;48.796;9.796;2023-07-29T11:57:04;7.20;;;0.30;;
6173;SDS011;3120;48.796;9.796;2023-07-29T11:59:33;1.15;;;0.38;;
6173;SDS011;3120;48.796;9.796;2023-07-29T12:02:08;1.55;;;0.30;;
6173;SDS011;3120;48.796;9.796;2023-07-29T12:04:37;2.15;;;0.40;;
6173;SDS011;3120;48.796;9.796;2023-07-29T12:07:04;1.38;;;0.40;;
6173;SDS011;3120;48.796;9.796;2023-07-29T12:09:30;0.57;;;0.30;;
6173;SDS011;3120;48.796;9.796;2023-07-29T12:11:56;1.73;;;0.50;;
6173;SDS011;3120;48.796;9.796;2023-07-29T12:14:25;0.50;;;0.40;;
6173;SDS011;3120;48.796;9.796;2023-07-29T12:16:52;2.50;;;0.60;;
6173;SDS011;3120;48.796;9.796;2023-07-29T12:19:18;1.02;;;0.50;;
6173;SDS011;3120;48.796;9.796;2023-07-29T12:21:44;1.02;;;0.38;;
6173;SDS011;3120;48.796;9.796;2023-07-29T12:24:13;1.35;;;0.40;;
6173;SDS011;3120;48.796;9.796;2023-07-29T12:26:42;0.40;;;0.40;;
6173;SDS011;3120;48.796;9.796;2023-07-29T12:29:12;2.20;;;0.60;;
6173;SDS011;3120;48.796;9.796;2023-07-29T12:31:39;1.25;;;0.50;;
6173;SDS011;3120;48.796;9.796;2023-07-29T12:34:05;0.88;;;0.40;;
6173;SDS011;3120;48.796;9.796;2023-07-29T12:36:43;0.80;;;0.43;;
6173;SDS011;3120;48.796;9.796;2023-07-29T12:39:16;1.85;;;0.35;;
6173;SDS011;3120;48.796;9.796;2023-07-29T12:41:56;0.52;;;0.50;;
6173;SDS011;3120;48.796;9.796;2023-07-29T12:44:23;0.40;;;0.40;;
6173;SDS011;3120;48.796;9.796;2023-07-29T12:46:50;0.73;;;0.40;;
6173;SDS011;3120;48.796;9.796;2023-07-29T12:49:16;7.00;;;0.50;;
6173;SDS011;3120;48.796;9.796;2023-07-29T12:51:41;1.23;;;0.50;;
6173;SDS011;3120;48.796;9.796;2023-07-29T12:54:08;0.73;;;0.55;;
6173;SDS011;3120;48.796;9.796;2023-07-29T12:56:33;1.20;;;0.50;;
6173;SDS011;3120;48.796;9.796;2023-07-29T12:59:00;1.52;;;0.70;;
6173;SDS011;3120;48.796;9.796;2023-07-29T13:01:26;0.60;;;0.43;;
6173;SDS011;3120;48.796;9.796;2023-07-29T13:03:53;1.45;;;0.80;;
6173;SDS011;3120;48.796;9.796;2023-07-29T13:06:19;2.03;;;0.80;;
6173;SDS011;3120;48.796;9.796;2023-07-29T13:08:45;5.15;;;0.60;;
6173;SDS011;3120;48.796;9.796;2023-07-29T13:11:11;1.42;;;0.60;;
6173;SDS011;3120;48.796;9.796;2023-07-29T13:13:36;0.93;;;0.52;;
6173;SDS011;3120;48.796;9.796;2023-07-29T13:16:02;2.75;;;0.65;;
6173;SDS011;3120;48.796;9.796;2023-07-29T13:18:28;1.33;;;0.43;;
6173;SDS011;3120;48.796;9.796;2023-07-29T13:20:54;1.42;;;0.50;;
6173;SDS011;3120;48.796;9.796;2023-07-29T13:23:20;1.33;;;0.60;;
6173;SDS011;3120;48.796;9.796;2023-07-29T13:25:47;0.73;;;0.50;;
6173;SDS011;3120;48.796;9.796;2023-07-29T13:28:12;0.90;;;0.60;;
6173;SDS011;3120;48.796;9.796;2023-07-29T13:30:38;1.42;;;0.70;;
6173;SDS011;3120;48.796;9.796;2023-07-29T13:33:04;2.03;;;0.60;;
6173;SDS011;3120;48.796;9.796;2023-07-29T13:35:31;2.88;;;0.60;;
6173;SDS011;3120;48.796;9.796;2023-07-29T13:37:56;1.15;;;0.57;;
6173;SDS011;3120;48.796;9.796;2023-07-29T13:40:22;0.88;;;0.70;;
6173;SDS011;3120;48.796;9.796;2023-07-29T13:42:48;1.15;;;0.60;;
6173;SDS011;3120;48.796;9.796;2023-07-29T13:45:13;1.10;;;0.60;;
6173;SDS011;3120;48.796;9.796;2023-07-29T13:47:39;1.88;;;0.65;;
6173;SDS011;3120;48.796;9.796;2023-07-29T13:50:05;0.68;;;0.65;;
6173;SDS011;3120;48.796;9.796;2023-07-29T13:52:32;0.95;;;0.70;;
6173;SDS011;3120;48.796;9.796;2023-07-29T13:54:58;0.70;;;0.60;;
6173;SDS011;3120;48.796;9.796;2023-07-29T13:57:23;1.05;;;0.68;;
6173;SDS011;3120;48.796;9.796;2023-07-29T13:59:49;1.42;;;0.80;;
6173;SDS011;3120;48.796;9.796;2023-07-29T14:02:14;5.07;;;0.90;;
6173;SDS011;3120;48.796;9.796;2023-07-29T14:04:40;2.03;;;0.88;;
6173;SDS011;3120;48.796;9.796;2023-07-29T14:07:05;1.48;;;0.90;;
6173;SDS011;3120;48.796;9.796;2023-07-29T14:09:31;1.60;;;0.80;;
6173;SDS011;3120;48.796;9.796;2023-07-29T14:11:57;2.65;;;0.90;;
6173;SDS011;3120;48.796;9.796;2023-07-29T14:14:23;1.20;;;0.80;;
6173;SDS011;3120;48.796;9.796;2023-07-29T14:16:48;1.13;;;0.90;;
6173;SDS011;3120;48.796;9.796;2023-07-29T14:19:14;2.85;;;0.80;;
6173;SDS011;3120;48.796;9.796;2023-07-29T14:21:40;1.25;;;1.10;;
6173;SDS011;3120;48.796;9.796;2023-07-29T14:24:05;1.77;;;1.13;;
6173;SDS011;3120;48.796;9.796;2023-07-29T14:26:32;1.65;;;1.00;;
6173;SDS011;3120;48.796;9.796;2023-07-29T14:28:58;0.70;;;0.70;;
6173;SDS011;3120;48.796;9.796;2023-07-29T14:31:24;1.58;;;0.85;;
6173;SDS011;3120;48.796;9.796;2023-07-29T14:33:50;2.47;;;0.70;;
6173;SDS011;3120;48.796;9.796;2023-07-29T14:36:15;2.05;;;1.02;;
6173;SDS011;3120;48.796;9.796;2023-07-29T14:38:41;0.80;;;0.60;;
6173;SDS011;3120;48.796;9.796;2023-07-29T14:41:07;0.65;;;0.60;;
6173;SDS011;3120;48.796;9.796;2023-07-29T14:43:33;2.75;;;1.00;;
6173;SDS011;3120;48.796;9.796;2023-07-29T14:45:59;0.80;;;0.80;;
6173;SDS011;3120;48.796;9.796;2023-07-29T14:48:25;0.68;;;0.68;;
6173;SDS011;3120;48.796;9.796;2023-07-29T14:50:50;3.45;;;0.82;;
6173;SDS011;3120;48.796;9.796;2023-07-29T14:53:16;1.77;;;0.98;;
6173;SDS011;3120;48.796;9.796;2023-07-29T14:55:42;0.90;;;0.68;;
6173;SDS011;3120;48.796;9.796;2023-07-29T14:58:07;3.03;;;0.70;;
6173;SDS011;3120;48.796;9.796;2023-07-29T15:00:33;2.35;;;0.68;;
6173;SDS011;3120;48.796;9.796;2023-07-29T15:02:59;2.80;;;1.08;;
6173;SDS011;3120;48.796;9.796;2023-07-29T15:05:24;3.63;;;0.85;;
6173;SDS011;3120;48.796;9.796;2023-07-29T15:07:50;1.40;;;1.00;;
6173;SDS011;3120;48.796;9.796;2023-07-29T15:10:16;3.08;;;1.10;;
6173;SDS011;3120;48.796;9.796;2023-07-29T15:12:42;1.85;;;0.75;;
6173;SDS011;3120;48.796;9.796;2023-07-29T15:15:08;2.15;;;1.10;;
6173;SDS011;3120;48.796;9.796;2023-07-29T15:17:35;1.63;;;0.90;;
6173;SDS011;3120;48.796;9.796;2023-07-29T15:20:01;2.83;;;1.35;;
6173;SDS011;3120;48.796;9.796;2023-07-29T15:22:27;1.83;;;0.85;;
6173;SDS011;3120;48.796;9.796;2023-07-29T15:24:52;2.55;;;1.10;;
6173;SDS011;3120;48.796;9.796;2023-07-29T15:27:18;4.07;;;1.25;;
6173;SDS011;3120;48.796;9.796;2023-07-29T15:29:43;3.47;;;1.20;;
6173;SDS011;3120;48.796;9.796;2023-07-29T15:32:09;1.58;;;1.48;;
6173;SDS011;3120;48.796;9.796;2023-07-29T15:34:35;5.35;;;1.30;;
6173;SDS011;3120;48.796;9.796;2023-07-29T15:37:01;2.03;;;1.30;;
6173;SDS011;3120;48.796;9.796;2023-07-29T15:39:27;1.15;;;0.90;;
6173;SDS011;3120;48.796;9.796;2023-07-29T15:41:53;2.05;;;0.95;;
6173;SDS011;3120;48.796;9.796;2023-07-29T15:44:18;2.50;;;1.10;;
6173;SDS011;3120;48.796;9.796;2023-07-29T15:46:44;1.30;;;0.90;;
6173;SDS011;3120;48.796;9.796;2023-07-29T15:49:11;1.10;;;0.98;;
6173;SDS011;3120;48.796;9.796;2023-07-29T15:51:42;1.05;;;0.88;;
6173;SDS011;3120;48.796;9.796;2023-07-29T15:54:08;1.17;;;0.95;;
6173;SDS011;3120;48.796;9.796;2023-07-29T15:56:33;2.00;;;1.10;;
6173;SDS011;3120;48.796;9.796;2023-07-29T15:59:01;4.82;;;0.90;;
6173;SDS011;3120;48.796;9.796;2023-07-29T16:01:30;3.10;;;1.13;;
6173;SDS011;3120;48.796;9.796;2023-07-29T16:03:56;3.17;;;1.13;;
6173;SDS011;3120;48.796;9.796;2023-07-29T16:06:22;1.30;;;1.00;;
6173;SDS011;3120;48.796;9.796;2023-07-29T16:08:50;2.80;;;1.00;;
6173;SDS011;3120;48.796;9.796;2023-07-29T16:11:15;3.80;;;1.25;;
6173;SDS011;3120;48.796;9.796;2023-07-29T16:13:41;1.42;;;0.88;;
6173;SDS011;3120;48.796;9.796;2023-07-29T16:16:06;1.85;;;1.35;;
6173;SDS011;3120;48.796;9.796;2023-07-29T16:18:32;1.77;;;1.25;;
6173;SDS011;3120;48.796;9.796;2023-07-29T16:20:57;1.55;;;0.93;;
6173;SDS011;3120;48.796;9.796;2023-07-29T16:23:29;1.17;;;0.90;;
6173;SDS011;3120;48.796;9.796;2023-07-29T16:25:56;1.33;;;1.10;;
6173;SDS011;3120;48.796;9.796;2023-07-29T16:28:22;0.77;;;0.77;;
6173;SDS011;3120;48.796;9.796;2023-07-29T16:30:48;2.55;;;1.00;;
6173;SDS011;3120;48.796;9.796;2023-07-29T16:33:13;1.20;;;1.08;;
6173;SDS011;3120;48.796;9.796;2023-07-29T16:35:39;2.65;;;1.20;;
6173;SDS011;3120;48.796;9.796;2023-07-29T16:38:06;1.55;;;1.17;;
6173;SDS011;3120;48.796;9.796;2023-07-29T16:40:32;1.00;;;0.95;;
6173;SDS011;3120;48.796;9.796;2023-07-29T16:42:57;0.90;;;0.90;;
6173;SDS011;3120;48.796;9.796;2023-07-29T16:45:23;0.93;;;0.85;;
6173;SDS011;3120;48.796;9.796;2023-07-29T16:47:50;0.98;;;0.90;;
6173;SDS011;3120;48.796;9.796;2023-07-29T16:50:15;1.55;;;1.10;;
6173;SDS011;3120;48.796;9.796;2023-07-29T16:52:41;3.17;;;1.15;;
6173;SDS011;3120;48.796;9.796;2023-07-29T16:55:07;1.13;;;1.02;;
6173;SDS011;3120;48.796;9.796;2023-07-29T16:57:33;3.20;;;0.90;;
6173;SDS011;3120;48.796;9.796;2023-07-29T16:59:59;5.40;;;0.90;;
6173;SDS011;3120;48.796;9.796;2023-07-29T17:02:25;2.28;;;1.00;;
6173;SDS011;3120;48.796;9.796;2023-07-29T17:04:50;1.75;;;1.00;;
6173;SDS011;3120;48.796;9.796;2023-07-29T17:07:16;1.48;;;0.90;;
6173;SDS011;3120;48.796;9.796;2023-07-29T17:09:42;1.10;;;1.00;;
6173;SDS011;3120;48.796;9.796;2023-07-29T17:12:11;1.75;;;1.00;;
6173;SDS011;3120;48.796;9.796;2023-07-29T17:14:37;1.17;;;0.93;;
6173;SDS011;3120;48.796;9.796;2023-07-29T17:17:02;2.28;;;1.27;;
6173;SDS011;3120;48.796;9.796;2023-07-29T17:19:29;1.27;;;0.80;;
6173;SDS011;3120;48.796;9.796;2023-07-29T17:21:55;3.72;;;1.45;;
6173;SDS011;3120;48.796;9.796;2023-07-29T17:24:20;1.85;;;1.15;;
6173;SDS011;3120;48.796;9.796;2023-07-29T17:26:46;2.03;;;1.33;;
6173;SDS011;3120;48.796;9.796;2023-07-29T17:29:11;1.75;;;1.20;;
6173;SDS011;3120;48.796;9.796;2023-07-29T17:31:37;2.05;;;1.30;;
6173;SDS011;3120;48.796;9.796;2023-07-29T17:34:03;1.30;;;1.20;;
6173;SDS011;3120;48.796;9.796;2023-07-29T17:36:28;2.33;;;0.88;;
